sensor_id;sensor_type;location;lat;lon;timestamp;P1;durP1;ratioP1;P2;durP2;ratioP2
69183;SDS011;56291;53.960;27.550;2023-06-22T10:07:44;7.28;;;4.53;;
69183;SDS011;56291;53.960;27.550;2023-06-22T10:10:10;5.20;;;4.53;;
69183;SDS011;56291;53.960;27.550;2023-06-22T10:12:41;7.85;;;4.72;;
69183;SDS011;56291;53.960;27.550;2023-06-22T10:15:10;8.52;;;4.28;;
69183;SDS011;56291;53.960;27.550;2023-06-22T10:17:42;5.13;;;4.47;;
69183;SDS011;56291;53.960;27.550;2023-06-22T10:20:08;6.63;;;4.72;;
69183;SDS011;56291;53.960;27.550;2023-06-22T10:22:38;8.23;;;4.40;;
69183;SDS011;56291;53.960;27.550;2023-06-22T10:25:05;4.93;;;4.35;;
69183;SDS011;56291;53.960;27.550;2023-06-22T10:27:32;5.57;;;4.30;;
69183;SDS011;56291;53.960;27.550;2023-06-22T10:30:00;7.43;;;4.75;;
69183;SDS011;56291;53.960;27.550;2023-06-22T10:32:27;6.57;;;4.55;;
69183;SDS011;56291;53.960;27.550;2023-06-22T10:34:53;6.13;;;4.95;;
69183;SDS011;56291;53.960;27.550;2023-06-22T10:37:22;6.25;;;4.53;;
69183;SDS011;56291;53.960;27.550;2023-06-22T10:39:48;6.88;;;4.13;;
69183;SDS011;56291;53.960;27.550;2023-06-22T10:42:14;5.25;;;4.72;;
69183;SDS011;56291;53.960;27.550;2023-06-22T10:44:40;5.22;;;4.53;;
69183;SDS011;56291;53.960;27.550;2023-06-22T10:47:09;6.72;;;4.78;;
69183;SDS011;56291;53.960;27.550;2023-06-22T10:49:37;5.88;;;4.32;;
69183;SDS011;56291;53.960;27.550;2023-06-22T10:52:04;4.72;;;4.32;;
69183;SDS011;56291;53.960;27.550;2023-06-22T10:54:32;7.32;;;4.65;;
69183;SDS011;56291;53.960;27.550;2023-06-22T10:56:59;5.75;;;3.97;;
69183;SDS011;56291;53.960;27.550;2023-06-22T10:59:25;7.38;;;4.90;;
69183;SDS011;56291;53.960;27.550;2023-06-22T11:01:53;4.93;;;4.38;;
69183;SDS011;56291;53.960;27.550;2023-06-22T11:04:23;6.90;;;4.88;;
69183;SDS011;56291;53.960;27.550;2023-06-22T11:06:51;6.15;;;4.63;;
69183;SDS011;56291;53.960;27.550;2023-06-22T11:09:17;8.50;;;4.45;;
69183;SDS011;56291;53.960;27.550;2023-06-22T11:11:49;8.00;;;4.68;;
69183;SDS011;56291;53.960;27.550;2023-06-22T11:14:18;5.65;;;5.05;;
69183;SDS011;56291;53.960;27.550;2023-06-22T11:16:45;6.85;;;4.70;;
69183;SDS011;56291;53.960;27.550;2023-06-22T11:19:11;5.18;;;4.68;;
69183;SDS011;56291;53.960;27.550;2023-06-22T11:21:38;5.22;;;4.72;;
69183;SDS011;56291;53.960;27.550;2023-06-22T11:24:04;5.35;;;4.57;;
69183;SDS011;56291;53.960;27.550;2023-06-22T11:26:30;5.03;;;4.28;;
69183;SDS011;56291;53.960;27.550;2023-06-22T11:28:58;5.78;;;4.20;;
69183;SDS011;56291;53.960;27.550;2023-06-22T11:31:24;5.00;;;4.50;;
69183;SDS011;56291;53.960;27.550;2023-06-22T11:33:50;6.13;;;4.30;;
69183;SDS011;56291;53.960;27.550;2023-06-22T11:36:17;6.18;;;4.78;;
69183;SDS011;56291;53.960;27.550;2023-06-22T11:38:46;14.98;;;4.97;;
69183;SDS011;56291;53.960;27.550;2023-06-22T11:41:12;9.05;;;5.90;;
69183;SDS011;56291;53.960;27.550;2023-06-22T11:43:48;7.95;;;5.50;;
69183;SDS011;56291;53.960;27.550;2023-06-22T11:46:17;7.93;;;5.63;;
69183;SDS011;56291;53.960;27.550;2023-06-22T11:48:43;7.50;;;5.32;;
69183;SDS011;56291;53.960;27.550;2023-06-22T11:51:09;9.52;;;5.22;;
69183;SDS011;56291;53.960;27.550;2023-06-22T11:53:36;9.40;;;4.63;;
69183;SDS011;56291;53.960;27.550;2023-06-22T11:56:02;6.47;;;5.50;;
69183;SDS011;56291;53.960;27.550;2023-06-22T11:58:32;7.15;;;4.55;;
69183;SDS011;56291;53.960;27.550;2023-06-22T12:00:58;7.38;;;5.07;;
69183;SDS011;56291;53.960;27.550;2023-06-22T12:03:25;7.20;;;4.63;;
69183;SDS011;56291;53.960;27.550;2023-06-22T12:05:51;10.55;;;5.43;;
69183;SDS011;56291;53.960;27.550;2023-06-22T12:10:49;6.65;;;5.60;;
69183;SDS011;56291;53.960;27.550;2023-06-22T12:13:15;9.45;;;5.38;;
69183;SDS011;56291;53.960;27.550;2023-06-22T12:15:42;7.90;;;5.32;;
69183;SDS011;56291;53.960;27.550;2023-06-22T12:18:23;9.77;;;5.65;;
69183;SDS011;56291;53.960;27.550;2023-06-22T12:20:49;8.02;;;6.18;;
69183;SDS011;56291;53.960;27.550;2023-06-22T12:23:15;7.40;;;6.07;;
69183;SDS011;56291;53.960;27.550;2023-06-22T12:25:41;14.27;;;6.38;;
69183;SDS011;56291;53.960;27.550;2023-06-22T12:28:09;7.47;;;6.32;;
69183;SDS011;56291;53.960;27.550;2023-06-22T12:30:35;6.60;;;5.68;;
69183;SDS011;56291;53.960;27.550;2023-06-22T12:33:02;7.38;;;5.82;;
69183;SDS011;56291;53.960;27.550;2023-06-22T12:35:28;7.07;;;6.38;;
69183;SDS011;56291;53.960;27.550;2023-06-22T12:37:54;9.90;;;7.18;;
69183;SDS011;56291;53.960;27.550;2023-06-22T12:40:20;13.60;;;7.10;;
69183;SDS011;56291;53.960;27.550;2023-06-22T12:42:46;7.47;;;6.68;;
69183;SDS011;56291;53.960;27.550;2023-06-22T12:45:12;8.40;;;6.70;;
69183;SDS011;56291;53.960;27.550;2023-06-22T12:47:39;8.00;;;6.45;;
69183;SDS011;56291;53.960;27.550;2023-06-22T12:50:15;9.02;;;6.20;;
69183;SDS011;56291;53.960;27.550;2023-06-22T12:52:42;7.80;;;5.90;;
69183;SDS011;56291;53.960;27.550;2023-06-22T12:55:08;8.73;;;6.88;;
69183;SDS011;56291;53.960;27.550;2023-06-22T12:57:34;8.00;;;6.38;;
69183;SDS011;56291;53.960;27.550;2023-06-22T13:00:01;7.38;;;5.93;;
69183;SDS011;56291;53.960;27.550;2023-06-22T13:02:29;10.18;;;6.22;;
69183;SDS011;56291;53.960;27.550;2023-06-22T13:04:55;8.93;;;6.80;;
69183;SDS011;56291;53.960;27.550;2023-06-22T13:07:21;8.75;;;6.22;;
69183;SDS011;56291;53.960;27.550;2023-06-22T13:09:47;8.32;;;6.63;;
69183;SDS011;56291;53.960;27.550;2023-06-22T13:12:16;9.02;;;6.32;;
69183;SDS011;56291;53.960;27.550;2023-06-22T13:14:48;8.68;;;6.30;;
69183;SDS011;56291;53.960;27.550;2023-06-22T13:17:15;6.65;;;5.88;;
69183;SDS011;56291;53.960;27.550;2023-06-22T13:19:41;8.77;;;6.93;;
69183;SDS011;56291;53.960;27.550;2023-06-22T13:22:28;7.30;;;6.45;;
69183;SDS011;56291;53.960;27.550;2023-06-22T13:24:56;6.82;;;6.13;;
69183;SDS011;56291;53.960;27.550;2023-06-22T13:27:26;10.27;;;6.63;;
69183;SDS011;56291;53.960;27.550;2023-06-22T13:29:53;6.95;;;6.25;;
69183;SDS011;56291;53.960;27.550;2023-06-22T13:32:21;8.90;;;6.88;;
69183;SDS011;56291;53.960;27.550;2023-06-22T13:34:49;7.13;;;6.43;;
69183;SDS011;56291;53.960;27.550;2023-06-22T13:37:17;7.95;;;6.53;;
69183;SDS011;56291;53.960;27.550;2023-06-22T13:39:44;6.97;;;6.10;;
69183;SDS011;56291;53.960;27.550;2023-06-22T13:42:10;7.10;;;6.03;;
69183;SDS011;56291;53.960;27.550;2023-06-22T13:44:36;6.93;;;6.22;;
69183;SDS011;56291;53.960;27.550;2023-06-22T13:47:09;7.57;;;6.30;;
69183;SDS011;56291;53.960;27.550;2023-06-22T13:49:36;10.45;;;6.63;;
69183;SDS011;56291;53.960;27.550;2023-06-22T13:52:03;9.38;;;6.70;;
69183;SDS011;56291;53.960;27.550;2023-06-22T13:54:34;7.75;;;6.57;;
69183;SDS011;56291;53.960;27.550;2023-06-22T13:57:00;8.27;;;6.05;;
69183;SDS011;56291;53.960;27.550;2023-06-22T13:59:28;8.57;;;6.57;;
69183;SDS011;56291;53.960;27.550;2023-06-22T14:01:55;6.97;;;6.25;;
69183;SDS011;56291;53.960;27.550;2023-06-22T14:04:25;6.70;;;6.03;;
69183;SDS011;56291;53.960;27.550;2023-06-22T14:06:53;7.55;;;6.57;;
69183;SDS011;56291;53.960;27.550;2023-06-22T14:09:20;6.72;;;6.03;;
69183;SDS011;56291;53.960;27.550;2023-06-22T14:11:47;7.75;;;6.57;;
69183;SDS011;56291;53.960;27.550;2023-06-22T14:14:13;10.02;;;6.32;;
69183;SDS011;56291;53.960;27.550;2023-06-22T14:16:39;7.13;;;5.85;;
69183;SDS011;56291;53.960;27.550;2023-06-22T14:19:05;8.15;;;6.30;;
69183;SDS011;56291;53.960;27.550;2023-06-22T14:21:31;8.63;;;6.63;;
69183;SDS011;56291;53.960;27.550;2023-06-22T14:23:57;7.53;;;6.50;;
69183;SDS011;56291;53.960;27.550;2023-06-22T14:26:23;8.80;;;6.15;;
69183;SDS011;56291;53.960;27.550;2023-06-22T14:28:49;6.38;;;5.68;;
69183;SDS011;56291;53.960;27.550;2023-06-22T14:31:17;7.78;;;5.75;;
69183;SDS011;56291;53.960;27.550;2023-06-22T14:33:45;6.72;;;5.07;;
69183;SDS011;56291;53.960;27.550;2023-06-22T14:36:16;8.60;;;5.15;;
69183;SDS011;56291;53.960;27.550;2023-06-22T14:38:43;6.78;;;5.43;;
69183;SDS011;56291;53.960;27.550;2023-06-22T14:41:09;6.60;;;5.32;;
69183;SDS011;56291;53.960;27.550;2023-06-22T14:43:35;9.57;;;5.13;;
69183;SDS011;56291;53.960;27.550;2023-06-22T14:46:01;6.15;;;5.43;;
69183;SDS011;56291;53.960;27.550;2023-06-22T14:48:28;6.10;;;5.50;;
69183;SDS011;56291;53.960;27.550;2023-06-22T14:50:54;8.18;;;5.10;;
69183;SDS011;56291;53.960;27.550;2023-06-22T14:53:21;7.60;;;5.45;;
69183;SDS011;56291;53.960;27.550;2023-06-22T14:55:48;8.68;;;6.15;;
69183;SDS011;56291;53.960;27.550;2023-06-22T14:58:14;6.20;;;5.50;;
69183;SDS011;56291;53.960;27.550;2023-06-22T15:00:40;6.75;;;4.80;;
69183;SDS011;56291;53.960;27.550;2023-06-22T15:03:06;7.10;;;5.20;;
69183;SDS011;56291;53.960;27.550;2023-06-22T15:05:36;7.05;;;5.50;;
69183;SDS011;56291;53.960;27.550;2023-06-22T15:08:02;7.78;;;5.30;;
69183;SDS011;56291;53.960;27.550;2023-06-22T15:10:28;6.93;;;5.65;;
69183;SDS011;56291;53.960;27.550;2023-06-22T15:12:55;7.22;;;5.50;;
69183;SDS011;56291;53.960;27.550;2023-06-22T15:15:21;8.02;;;5.72;;
69183;SDS011;56291;53.960;27.550;2023-06-22T15:17:49;6.15;;;5.38;;
69183;SDS011;56291;53.960;27.550;2023-06-22T15:20:15;6.97;;;5.82;;
69183;SDS011;56291;53.960;27.550;2023-06-22T15:22:41;9.98;;;5.88;;
69183;SDS011;56291;53.960;27.550;2023-06-22T15:25:08;7.65;;;5.28;;
69183;SDS011;56291;53.960;27.550;2023-06-22T15:27:34;6.18;;;5.43;;
69183;SDS011;56291;53.960;27.550;2023-06-22T15:30:00;7.00;;;5.70;;
69183;SDS011;56291;53.960;27.550;2023-06-22T15:32:29;6.53;;;5.63;;
69183;SDS011;56291;53.960;27.550;2023-06-22T15:34:55;6.63;;;5.65;;
69183;SDS011;56291;53.960;27.550;2023-06-22T15:37:22;9.55;;;5.85;;
69183;SDS011;56291;53.960;27.550;2023-06-22T15:39:50;6.90;;;5.60;;
69183;SDS011;56291;53.960;27.550;2023-06-22T15:42:17;10.30;;;6.05;;
69183;SDS011;56291;53.960;27.550;2023-06-22T15:44:43;6.05;;;5.45;;
69183;SDS011;56291;53.960;27.550;2023-06-22T15:47:11;7.30;;;5.93;;
69183;SDS011;56291;53.960;27.550;2023-06-22T15:49:38;6.10;;;5.10;;
69183;SDS011;56291;53.960;27.550;2023-06-22T15:52:09;9.32;;;5.70;;
69183;SDS011;56291;53.960;27.550;2023-06-22T15:54:35;7.38;;;6.03;;
69183;SDS011;56291;53.960;27.550;2023-06-22T15:57:01;7.95;;;5.75;;
69183;SDS011;56291;53.960;27.550;2023-06-22T15:59:27;7.63;;;5.88;;
69183;SDS011;56291;53.960;27.550;2023-06-22T16:01:54;6.95;;;6.10;;
69183;SDS011;56291;53.960;27.550;2023-06-22T16:04:20;6.82;;;5.88;;
69183;SDS011;56291;53.960;27.550;2023-06-22T16:06:46;6.72;;;5.90;;
69183;SDS011;56291;53.960;27.550;2023-06-22T16:09:12;7.50;;;5.97;;
69183;SDS011;56291;53.960;27.550;2023-06-22T16:11:39;9.32;;;6.13;;
69183;SDS011;56291;53.960;27.550;2023-06-22T16:14:05;7.43;;;5.75;;
69183;SDS011;56291;53.960;27.550;2023-06-22T16:16:33;6.82;;;5.97;;
69183;SDS011;56291;53.960;27.550;2023-06-22T16:19:02;6.80;;;6.13;;
69183;SDS011;56291;53.960;27.550;2023-06-22T16:21:28;6.40;;;5.80;;
69183;SDS011;56291;53.960;27.550;2023-06-22T16:23:54;6.80;;;6.10;;
69183;SDS011;56291;53.960;27.550;2023-06-22T16:26:20;8.65;;;5.70;;
69183;SDS011;56291;53.960;27.550;2023-06-22T16:28:46;8.23;;;6.00;;
69183;SDS011;56291;53.960;27.550;2023-06-22T16:31:13;9.55;;;6.28;;
69183;SDS011;56291;53.960;27.550;2023-06-22T16:33:41;6.55;;;5.82;;
69183;SDS011;56291;53.960;27.550;2023-06-22T16:36:12;7.57;;;5.97;;
69183;SDS011;56291;53.960;27.550;2023-06-22T16:38:38;6.30;;;5.70;;
69183;SDS011;56291;53.960;27.550;2023-06-22T16:41:05;8.18;;;6.13;;
69183;SDS011;56291;53.960;27.550;2023-06-22T16:43:32;7.43;;;5.72;;
69183;SDS011;56291;53.960;27.550;2023-06-22T16:45:59;6.50;;;5.80;;
69183;SDS011;56291;53.960;27.550;2023-06-22T16:48:25;6.82;;;6.07;;
69183;SDS011;56291;53.960;27.550;2023-06-22T16:50:51;7.47;;;6.60;;
69183;SDS011;56291;53.960;27.550;2023-06-22T16:53:17;8.45;;;6.40;;
69183;SDS011;56291;53.960;27.550;2023-06-22T16:55:47;8.52;;;6.20;;
69183;SDS011;56291;53.960;27.550;2023-06-22T16:58:14;6.55;;;5.90;;
69183;SDS011;56291;53.960;27.550;2023-06-22T17:00:48;6.88;;;6.18;;
69183;SDS011;56291;53.960;27.550;2023-06-22T17:03:22;7.13;;;6.00;;
69183;SDS011;56291;53.960;27.550;2023-06-22T17:05:57;7.78;;;6.15;;
69183;SDS011;56291;53.960;27.550;2023-06-22T17:08:33;7.05;;;6.30;;
69183;SDS011;56291;53.960;27.550;2023-06-22T17:11:00;6.82;;;6.22;;
69183;SDS011;56291;53.960;27.550;2023-06-22T17:13:26;7.82;;;6.20;;
69183;SDS011;56291;53.960;27.550;2023-06-22T17:15:59;13.07;;;6.40;;
69183;SDS011;56291;53.960;27.550;2023-06-22T17:18:28;7.97;;;6.55;;
69183;SDS011;56291;53.960;27.550;2023-06-22T17:20:56;7.78;;;6.68;;
69183;SDS011;56291;53.960;27.550;2023-06-22T17:23:23;9.90;;;7.13;;
69183;SDS011;56291;53.960;27.550;2023-06-22T17:25:50;9.68;;;6.55;;
69183;SDS011;56291;53.960;27.550;2023-06-22T17:28:18;9.13;;;7.03;;
69183;SDS011;56291;53.960;27.550;2023-06-22T17:30:52;7.75;;;6.63;;
69183;SDS011;56291;53.960;27.550;2023-06-22T17:33:34;8.18;;;6.72;;
69183;SDS011;56291;53.960;27.550;2023-06-22T17:36:01;8.18;;;6.72;;
69183;SDS011;56291;53.960;27.550;2023-06-22T17:38:35;7.43;;;6.72;;
69183;SDS011;56291;53.960;27.550;2023-06-22T17:41:02;7.60;;;6.72;;
69183;SDS011;56291;53.960;27.550;2023-06-22T17:43:28;7.75;;;6.68;;
69183;SDS011;56291;53.960;27.550;2023-06-22T17:45:58;7.38;;;6.07;;
69183;SDS011;56291;53.960;27.550;2023-06-22T17:48:29;7.18;;;6.47;;
69183;SDS011;56291;53.960;27.550;2023-06-22T17:50:57;10.75;;;6.43;;
69183;SDS011;56291;53.960;27.550;2023-06-22T17:53:25;7.30;;;6.53;;
69183;SDS011;56291;53.960;27.550;2023-06-22T17:55:53;7.60;;;6.80;;
69183;SDS011;56291;53.960;27.550;2023-06-22T17:58:19;7.55;;;6.43;;
69183;SDS011;56291;53.960;27.550;2023-06-22T18:00:46;7.88;;;7.07;;
69183;SDS011;56291;53.960;27.550;2023-06-22T18:03:13;7.07;;;6.13;;
69183;SDS011;56291;53.960;27.550;2023-06-22T18:05:45;7.53;;;6.45;;
69183;SDS011;56291;53.960;27.550;2023-06-22T18:08:13;7.72;;;6.72;;
69183;SDS011;56291;53.960;27.550;2023-06-22T18:10:41;7.50;;;6.70;;
69183;SDS011;56291;53.960;27.550;2023-06-22T18:13:09;9.63;;;6.65;;
69183;SDS011;56291;53.960;27.550;2023-06-22T18:15:48;8.30;;;6.78;;
69183;SDS011;56291;53.960;27.550;2023-06-22T18:18:16;8.07;;;7.15;;
69183;SDS011;56291;53.960;27.550;2023-06-22T18:20:43;8.02;;;7.22;;
69183;SDS011;56291;53.960;27.550;2023-06-22T18:23:12;7.85;;;7.00;;
69183;SDS011;56291;53.960;27.550;2023-06-22T18:25:39;8.55;;;7.57;;
69183;SDS011;56291;53.960;27.550;2023-06-22T18:28:10;7.90;;;7.10;;
69183;SDS011;56291;53.960;27.550;2023-06-22T18:30:37;9.35;;;7.78;;
69183;SDS011;56291;53.960;27.550;2023-06-22T18:33:06;12.90;;;8.02;;
69183;SDS011;56291;53.960;27.550;2023-06-22T18:35:33;8.57;;;7.38;;
69183;SDS011;56291;53.960;27.550;2023-06-22T18:38:01;8.77;;;7.95;;
69183;SDS011;56291;53.960;27.550;2023-06-22T18:40:28;10.40;;;7.93;;
69183;SDS011;56291;53.960;27.550;2023-06-22T18:42:59;8.32;;;7.45;;
69183;SDS011;56291;53.960;27.550;2023-06-22T18:45:28;10.38;;;7.90;;
69183;SDS011;56291;53.960;27.550;2023-06-22T18:48:01;9.73;;;8.70;;
69183;SDS011;56291;53.960;27.550;2023-06-22T18:50:35;8.82;;;7.93;;
69183;SDS011;56291;53.960;27.550;2023-06-22T18:53:25;10.70;;;8.70;;
69183;SDS011;56291;53.960;27.550;2023-06-22T18:56:10;10.45;;;8.30;;
69183;SDS011;56291;53.960;27.550;2023-06-22T18:58:37;9.35;;;8.38;;
69183;SDS011;56291;53.960;27.550;2023-06-22T19:01:25;10.70;;;8.57;;
69183;SDS011;56291;53.960;27.550;2023-06-22T19:03:50;8.68;;;7.78;;
69183;SDS011;56291;53.960;27.550;2023-06-22T19:09:15;10.00;;;8.45;;
69183;SDS011;56291;53.960;27.550;2023-06-22T19:11:43;10.95;;;8.75;;
69183;SDS011;56291;53.960;27.550;2023-06-22T19:14:17;10.18;;;8.48;;
69183;SDS011;56291;53.960;27.550;2023-06-22T19:16:47;13.20;;;10.02;;
69183;SDS011;56291;53.960;27.550;2023-06-22T19:19:24;10.35;;;9.25;;
69183;SDS011;56291;53.960;27.550;2023-06-22T19:21:59;9.48;;;8.57;;
69183;SDS011;56291;53.960;27.550;2023-06-22T19:24:29;9.95;;;8.95;;
69183;SDS011;56291;53.960;27.550;2023-06-22T19:26:56;9.95;;;8.27;;
69183;SDS011;56291;53.960;27.550;2023-06-22T19:29:23;21.85;;;11.80;;
69183;SDS011;56291;53.960;27.550;2023-06-22T19:31:52;13.30;;;10.70;;
69183;SDS011;56291;53.960;27.550;2023-06-22T19:34:20;11.98;;;9.65;;
69183;SDS011;56291;53.960;27.550;2023-06-22T19:36:48;12.48;;;10.32;;
69183;SDS011;56291;53.960;27.550;2023-06-22T19:39:14;9.73;;;8.73;;
69183;SDS011;56291;53.960;27.550;2023-06-22T19:41:40;13.40;;;9.93;;
69183;SDS011;56291;53.960;27.550;2023-06-22T19:44:06;12.52;;;10.50;;
69183;SDS011;56291;53.960;27.550;2023-06-22T19:46:34;14.35;;;9.63;;
69183;SDS011;56291;53.960;27.550;2023-06-22T19:49:00;11.88;;;9.70;;
69183;SDS011;56291;53.960;27.550;2023-06-22T19:51:33;10.95;;;9.50;;
69183;SDS011;56291;53.960;27.550;2023-06-22T19:54:07;11.40;;;10.20;;
69183;SDS011;56291;53.960;27.550;2023-06-22T19:56:38;12.68;;;9.95;;
69183;SDS011;56291;53.960;27.550;2023-06-22T19:59:11;11.32;;;10.13;;
69183;SDS011;56291;53.960;27.550;2023-06-22T20:01:40;12.00;;;10.70;;
69183;SDS011;56291;53.960;27.550;2023-06-22T20:04:06;11.13;;;9.77;;
69183;SDS011;56291;53.960;27.550;2023-06-22T20:06:33;12.80;;;10.60;;
69183;SDS011;56291;53.960;27.550;2023-06-22T20:08:59;14.50;;;11.50;;
69183;SDS011;56291;53.960;27.550;2023-06-22T20:11:30;12.40;;;9.63;;
69183;SDS011;56291;53.960;27.550;2023-06-22T20:13:58;14.65;;;11.70;;
69183;SDS011;56291;53.960;27.550;2023-06-22T20:16:27;13.60;;;10.63;;
69183;SDS011;56291;53.960;27.550;2023-06-22T20:19:05;10.15;;;9.10;;
69183;SDS011;56291;53.960;27.550;2023-06-22T20:21:44;14.70;;;12.13;;
69183;SDS011;56291;53.960;27.550;2023-06-22T20:24:10;12.50;;;10.95;;
69183;SDS011;56291;53.960;27.550;2023-06-22T20:26:44;10.68;;;9.57;;
69183;SDS011;56291;53.960;27.550;2023-06-22T20:29:31;19.23;;;11.60;;
69183;SDS011;56291;53.960;27.550;2023-06-22T20:32:07;13.13;;;9.98;;
69183;SDS011;56291;53.960;27.550;2023-06-22T20:37:10;17.73;;;10.18;;
69183;SDS011;56291;53.960;27.550;2023-06-22T20:39:37;11.40;;;9.82;;
69183;SDS011;56291;53.960;27.550;2023-06-22T20:42:04;14.65;;;11.07;;
69183;SDS011;56291;53.960;27.550;2023-06-22T20:44:31;11.55;;;9.73;;
69183;SDS011;56291;53.960;27.550;2023-06-22T20:46:57;12.30;;;11.00;;
69183;SDS011;56291;53.960;27.550;2023-06-22T20:49:24;10.85;;;9.25;;
69183;SDS011;56291;53.960;27.550;2023-06-22T20:51:53;10.23;;;9.13;;
69183;SDS011;56291;53.960;27.550;2023-06-22T20:54:22;11.25;;;9.95;;
69183;SDS011;56291;53.960;27.550;2023-06-22T20:56:49;11.13;;;10.02;;
69183;SDS011;56291;53.960;27.550;2023-06-22T20:59:17;11.25;;;9.38;;
69183;SDS011;56291;53.960;27.550;2023-06-22T21:01:43;11.88;;;10.57;;
69183;SDS011;56291;53.960;27.550;2023-06-22T21:04:11;13.95;;;12.10;;
